createdAt,value
2023-11-30T00:00:12.340Z,99984.19
2023-11-30T00:02:38.883Z,99973.31
2023-11-30T00:05:08.309Z,99975.19
2023-11-30T00:07:34.923Z,99981.47
2023-11-30T00:10:01.565Z,99992.34
2023-11-30T00:12:28.058Z,99995.09
2023-11-30T00:14:54.543Z,99989.63
2023-11-30T00:17:21.025Z,100002.41
2023-11-30T00:19:47.494Z,99996.75
2023-11-30T00:22:13.975Z,100000.53
2023-11-30T00:24:40.571Z,100003.25
2023-11-30T00:27:07.035Z,100009.91
2023-11-30T00:29:33.488Z,100003.84
2023-11-30T00:31:59.965Z,100018.91
2023-11-30T00:34:26.427Z,100030.59
2023-11-30T00:36:52.906Z,100018.63
2023-11-30T00:39:19.437Z,100022.78
2023-11-30T00:41:45.973Z,100017.75
2023-11-30T00:44:12.499Z,100023.78
2023-11-30T00:46:39.021Z,100026.72
2023-11-30T00:49:05.555Z,100036.13
2023-11-30T00:51:32.009Z,100030.22
2023-11-30T00:53:58.455Z,100030.63
2023-11-30T00:56:24.938Z,100032.06
2023-11-30T00:58:51.373Z,100039.59
2023-11-30T01:01:17.850Z,100037.25
2023-11-30T01:03:44.417Z,100040.38
2023-11-30T01:06:11.068Z,100039.94
2023-11-30T01:08:37.599Z,100042.00
2023-11-30T01:11:04.619Z,100056.66
2023-11-30T01:13:31.227Z,100057.03
2023-11-30T01:15:57.702Z,100061.19
2023-11-30T01:18:24.310Z,100065.16
2023-11-30T01:20:50.909Z,100064.50
2023-11-30T01:23:17.371Z,100071.13
2023-11-30T01:25:43.823Z,100070.50
2023-11-30T01:28:10.325Z,100062.56
2023-11-30T01:30:36.743Z,100053.72
2023-11-30T01:33:03.325Z,100057.50
2023-11-30T01:35:30.349Z,100054.13
2023-11-30T01:37:57.337Z,100060.59
2023-11-30T01:42:38.484Z,100080.22
2023-11-30T01:45:05.362Z,100073.28
2023-11-30T01:47:32.292Z,100079.75
2023-11-30T01:49:59.569Z,100072.84
2023-11-30T01:52:26.240Z,100081.19
2023-11-30T01:54:53.021Z,100075.28
2023-11-30T01:57:19.709Z,100076.34
2023-11-30T01:59:47.660Z,100076.53
2023-11-30T02:02:16.418Z,100087.41
2023-11-30T02:04:43.608Z,100090.31
2023-11-30T02:07:10.842Z,100095.09
2023-11-30T02:09:37.299Z,100096.97
2023-11-30T02:12:03.820Z,100107.19
2023-11-30T02:14:32.160Z,100104.69
2023-11-30T02:16:58.647Z,100098.41
2023-11-30T02:19:25.087Z,100100.47
2023-11-30T02:21:52.040Z,100092.50
2023-11-30T02:24:18.992Z,100092.31
2023-11-30T02:26:45.858Z,100086.50
2023-11-30T02:29:16.592Z,100082.09
2023-11-30T02:31:43.601Z,100083.16
2023-11-30T02:34:10.109Z,100085.19
2023-11-30T02:36:36.585Z,100090.63
2023-11-30T02:39:03.345Z,100093.56
2023-11-30T02:41:30.001Z,100090.38
2023-11-30T02:43:56.709Z,100102.09
2023-11-30T02:46:23.214Z,100096.84
2023-11-30T02:48:49.868Z,100092.25
2023-11-30T02:51:16.538Z,100102.28
2023-11-30T02:53:42.966Z,100101.63
2023-11-30T02:56:09.672Z,100106.41
2023-11-30T02:58:36.127Z,100103.03
2023-11-30T03:01:03.353Z,100109.50
2023-11-30T03:03:29.849Z,100105.13
2023-11-30T03:05:56.626Z,100110.56
2023-11-30T03:08:23.164Z,100113.44
2023-11-30T03:10:50.050Z,100114.69
2023-11-30T03:13:16.522Z,100102.69
2023-11-30T03:15:46.719Z,100108.97
2023-11-30T03:18:13.677Z,100100.81
2023-11-30T03:20:40.277Z,100098.31
2023-11-30T03:23:06.780Z,100101.22
2023-11-30T03:25:34.387Z,100105.16
2023-11-30T03:28:01.080Z,100098.88
2023-11-30T03:30:27.877Z,100101.59
2023-11-30T03:32:55.914Z,100092.63
2023-11-30T03:35:22.676Z,100091.94
2023-11-30T03:37:49.726Z,100091.94
2023-11-30T03:40:16.202Z,100094.88
2023-11-30T03:42:42.672Z,100091.50
2023-11-30T03:45:09.568Z,100096.28
2023-11-30T03:47:36.136Z,100092.72
2023-11-30T03:50:02.672Z,100100.19
2023-11-30T03:52:29.228Z,100087.66
2023-11-30T03:54:55.740Z,100092.06
2023-11-30T03:57:22.292Z,100087.03
2023-11-30T03:59:48.755Z,100087.03
2023-11-30T04:02:15.305Z,100088.03
2023-11-30T04:04:42.887Z,100089.28
2023-11-30T04:07:09.443Z,100099.09
2023-11-30T04:09:39.075Z,100098.63
2023-11-30T04:12:05.792Z,100106.13
2023-11-30T04:14:32.328Z,100104.44
2023-11-30T04:17:01.585Z,100105.44
2023-11-30T04:19:29.794Z,100104.59
2023-11-30T04:21:56.265Z,100106.47
2023-11-30T04:24:22.876Z,100095.16
2023-11-30T04:26:49.435Z,100094.50
2023-11-30T04:29:15.943Z,100100.13
2023-11-30T04:31:42.407Z,100098.25
2023-11-30T04:34:09.911Z,100099.47
2023-11-30T04:36:36.633Z,100106.94
2023-11-30T04:39:03.214Z,100104.44
2023-11-30T04:41:29.842Z,100101.91
2023-11-30T04:43:56.298Z,100105.63
2023-11-30T04:46:22.840Z,100107.50
2023-11-30T04:48:49.348Z,100105.63
2023-11-30T04:51:15.903Z,100106.88
2023-11-30T04:53:42.399Z,100104.16
2023-11-30T04:56:09.024Z,100097.22
2023-11-30T04:58:35.513Z,100096.75
2023-11-30T05:01:01.979Z,100098.84
2023-11-30T05:03:28.724Z,100095.28
2023-11-30T05:05:55.598Z,100106.13
2023-11-30T05:08:22.053Z,100099.41
2023-11-30T05:10:48.561Z,100103.13
2023-11-30T05:13:15.320Z,100104.00
2023-11-30T05:15:42.356Z,100099.56
2023-11-30T05:18:09.604Z,100114.84
2023-11-30T05:20:36.390Z,100108.75
2023-11-30T05:23:02.868Z,100115.22
2023-11-30T05:25:32.084Z,100112.50
2023-11-30T05:27:59.056Z,100114.53
2023-11-30T05:30:28.715Z,100110.34
2023-11-30T05:32:55.374Z,100115.78
2023-11-30T05:35:23.953Z,100108.66
2023-11-30T05:37:50.680Z,100115.94
2023-11-30T05:40:19.725Z,100116.97
2023-11-30T05:42:46.211Z,100117.16
2023-11-30T05:45:12.798Z,100118.22
2023-11-30T05:47:39.447Z,100121.09
2023-11-30T05:50:06.433Z,100122.97
2023-11-30T05:52:32.846Z,100132.13
2023-11-30T05:54:59.366Z,100134.16
2023-11-30T05:57:25.867Z,100142.31
2023-11-30T05:59:52.330Z,100149.59
2023-11-30T06:02:18.889Z,100150.84
2023-11-30T06:04:52.948Z,100151.00
2023-11-30T06:07:20.237Z,100155.59
2023-11-30T06:09:47.066Z,100161.84
2023-11-30T06:12:13.882Z,100162.69
2023-11-30T06:14:40.345Z,100162.03
2023-11-30T06:17:06.841Z,100155.78
2023-11-30T06:19:33.920Z,100154.75
2023-11-30T06:22:00.733Z,100154.06
2023-11-30T06:24:27.761Z,100162.41
2023-11-30T06:26:54.580Z,100160.53
2023-11-30T06:29:21.166Z,100159.88
2023-11-30T06:31:47.609Z,100174.47
2023-11-30T06:34:14.154Z,100172.59
2023-11-30T06:36:40.611Z,100178.03
2023-11-30T06:39:07.198Z,100187.16
2023-11-30T06:41:33.711Z,100188.69
2023-11-30T06:44:00.444Z,100188.69
2023-11-30T06:46:26.969Z,100191.59
2023-11-30T06:48:53.493Z,100198.97
2023-11-30T06:51:20.148Z,100195.22
2023-11-30T06:53:46.721Z,100201.22
2023-11-30T06:56:14.352Z,100198.63
2023-11-30T06:58:40.846Z,100203.88
2023-11-30T07:01:13.294Z,100205.41
2023-11-30T07:03:42.898Z,100204.94
2023-11-30T07:06:10.666Z,100209.03
2023-11-30T07:08:37.540Z,100210.16
2023-11-30T07:11:07.983Z,100212.16
2023-11-30T07:13:34.461Z,100211.59
2023-11-30T07:16:01.088Z,100213.72
2023-11-30T07:18:27.711Z,100220.69
2023-11-30T07:20:54.301Z,100209.41
2023-11-30T07:23:20.746Z,100216.41
2023-11-30T07:25:47.713Z,100217.91
2023-11-30T07:28:14.267Z,100221.06
2023-11-30T07:30:42.444Z,100221.94
2023-11-30T07:33:12.139Z,100219.00
2023-11-30T07:35:45.030Z,100216.94
2023-11-30T07:38:11.480Z,100215.53
2023-11-30T07:40:37.903Z,100214.53
2023-11-30T07:43:04.463Z,100210.78
2023-11-30T07:45:31.245Z,100212.28
2023-11-30T07:47:58.690Z,100213.13
2023-11-30T07:50:28.264Z,100218.34
2023-11-30T07:52:54.903Z,100223.41
2023-11-30T07:55:21.447Z,100229.69
2023-11-30T07:57:48.770Z,100230.53
2023-11-30T08:00:16.516Z,100224.91
2023-11-30T08:02:43.461Z,100226.41
2023-11-30T08:05:10.328Z,100227.03
2023-11-30T08:07:36.950Z,100229.75
2023-11-30T08:10:05.924Z,100235.03
2023-11-30T08:12:33.064Z,100232.09
2023-11-30T08:14:59.616Z,100232.94
2023-11-30T08:17:26.385Z,100238.84
2023-11-30T08:19:53.006Z,100245.94
2023-11-30T08:22:19.523Z,100236.78
2023-11-30T08:24:46.044Z,100249.97
2023-11-30T08:27:12.603Z,100239.09
2023-11-30T08:29:39.167Z,100239.97
2023-11-30T08:32:06.239Z,100245.22
2023-11-30T08:34:32.707Z,100244.84
2023-11-30T08:36:59.218Z,100246.31
2023-11-30T08:39:25.836Z,100240.72
2023-11-30T08:41:54.492Z,100240.31
2023-11-30T08:44:21.266Z,100237.44
2023-11-30T08:46:47.873Z,100237.22
2023-11-30T08:49:14.378Z,100247.06
2023-11-30T08:51:45.539Z,100236.00
2023-11-30T08:54:12.499Z,100244.16
2023-11-30T08:56:38.986Z,100242.91
2023-11-30T08:59:05.482Z,100245.63
2023-11-30T09:01:33.732Z,100245.47
2023-11-30T09:04:06.484Z,100244.44
2023-11-30T09:06:34.654Z,100253.41
2023-11-30T09:09:02.352Z,100249.66
2023-11-30T09:11:31.341Z,100249.66
2023-11-30T09:13:58.450Z,100245.91
2023-11-30T09:16:26.526Z,100245.06
2023-11-30T09:18:55.593Z,100249.50
2023-11-30T09:21:22.522Z,100249.28
2023-11-30T09:23:49.258Z,100257.06
2023-11-30T09:26:15.741Z,100248.91
2023-11-30T09:28:42.371Z,100258.53
2023-11-30T09:31:09.029Z,100257.31
2023-11-30T09:33:35.603Z,100250.22
2023-11-30T09:36:03.220Z,100250.84
2023-11-30T09:38:29.719Z,100244.56
2023-11-30T09:40:56.320Z,100244.38
2023-11-30T09:43:22.828Z,100227.06
2023-11-30T09:45:49.749Z,100235.00
2023-11-30T09:48:16.637Z,100236.50
2023-11-30T09:50:43.288Z,100231.91
2023-11-30T09:53:10.029Z,100231.72
2023-11-30T09:55:36.614Z,100227.31
2023-11-30T09:58:05.093Z,100229.84
2023-11-30T10:00:31.791Z,100225.09
2023-11-30T10:03:01.156Z,100219.44
2023-11-30T10:05:29.680Z,100220.28
2023-11-30T10:07:59.542Z,100220.13
2023-11-30T10:10:26.423Z,100208.38
2023-11-30T10:12:54.375Z,100211.09
2023-11-30T10:15:21.632Z,100210.91
2023-11-30T10:17:49.954Z,100203.59
2023-11-30T10:20:16.948Z,100200.69
2023-11-30T10:22:43.424Z,100197.97
2023-11-30T10:25:10.446Z,100196.94
2023-11-30T10:27:37.707Z,100196.75
2023-11-30T10:30:06.179Z,100196.94
2023-11-30T10:32:39.031Z,100189.41
2023-11-30T10:35:09.167Z,100194.84
2023-11-30T10:37:41.856Z,100200.28
2023-11-30T10:40:10.166Z,100204.69
2023-11-30T10:42:37.101Z,100199.06
2023-11-30T10:45:08.227Z,100196.16
2023-11-30T10:47:39.419Z,100195.09
2023-11-30T10:50:07.404Z,100198.66
2023-11-30T10:52:34.203Z,100194.09
2023-11-30T10:55:27.017Z,100194.94
2023-11-30T10:57:57.260Z,100194.94
2023-11-30T11:00:24.922Z,100191.16
2023-11-30T11:02:51.528Z,100188.44
2023-11-30T11:05:22.137Z,100189.91
2023-11-30T11:07:49.539Z,100179.91
2023-11-30T11:10:23.493Z,100176.16
2023-11-30T11:12:51.143Z,100182.22
2023-11-30T11:15:20.392Z,100179.31
2023-11-30T11:17:48.294Z,100170.34
2023-11-30T11:20:26.193Z,100178.50
2023-11-30T11:23:05.412Z,100172.00
2023-11-30T11:25:47.091Z,100166.56
2023-11-30T11:28:15.094Z,100170.13
2023-11-30T11:30:45.726Z,100161.13
2023-11-30T11:33:14.609Z,100161.75
2023-11-30T11:35:41.586Z,100160.75
2023-11-30T11:38:08.303Z,100156.13
2023-11-30T11:40:38.099Z,100159.69
2023-11-30T11:43:05.245Z,100156.97
2023-11-30T11:45:31.776Z,100157.81
2023-11-30T11:47:58.280Z,100158.66
2023-11-30T11:50:24.757Z,100151.16
2023-11-30T11:52:51.871Z,100146.56
2023-11-30T11:55:18.364Z,100145.72
2023-11-30T11:57:45.615Z,100152.00
2023-11-30T12:00:19.743Z,100150.94
2023-11-30T12:02:46.460Z,100156.19
2023-11-30T12:05:14.090Z,100150.94
2023-11-30T12:07:49.603Z,100150.94
2023-11-30T12:10:32.880Z,100140.06
2023-11-30T12:13:00.101Z,100139.03
2023-11-30T12:15:26.940Z,100136.13
2023-11-30T12:17:53.874Z,100132.53
2023-11-30T12:20:20.721Z,100136.13
2023-11-30T12:22:47.726Z,100134.25
2023-11-30T12:25:14.310Z,100141.34
2023-11-30T12:27:41.009Z,100140.31
2023-11-30T12:30:08.835Z,100134.88
2023-11-30T12:32:38.520Z,100130.25
2023-11-30T12:35:05.786Z,100132.16
2023-11-30T12:37:32.907Z,100130.09
2023-11-30T12:39:59.796Z,100126.31
2023-11-30T12:42:27.736Z,100128.22
2023-11-30T12:44:54.235Z,100118.78
2023-11-30T12:47:21.034Z,100126.13
2023-11-30T12:49:49.053Z,100121.72
2023-11-30T12:52:16.103Z,100127.78
2023-11-30T12:54:42.752Z,100131.38
2023-11-30T12:57:09.235Z,100129.66
2023-11-30T12:59:35.717Z,100135.94
2023-11-30T13:02:02.262Z,100127.59
2023-11-30T13:04:31.257Z,100132.00
2023-11-30T13:06:57.754Z,100131.16
2023-11-30T13:09:24.212Z,100132.00
2023-11-30T13:11:53.602Z,100131.16
2023-11-30T13:14:20.140Z,100132.84
2023-11-30T13:16:47.783Z,100135.56
2023-11-30T13:19:14.354Z,100141.84
2023-11-30T13:21:41.392Z,100145.41
2023-11-30T13:24:07.967Z,100147.28
2023-11-30T13:26:34.507Z,100150.84
2023-11-30T13:29:01.021Z,100148.13
2023-11-30T13:31:27.573Z,100147.28
2023-11-30T13:33:57.120Z,100153.56
2023-11-30T13:36:23.751Z,100159.88
2023-11-30T13:38:50.239Z,100160.88
2023-11-30T13:41:17.169Z,100168.03
2023-11-30T13:43:44.060Z,100167.16
2023-11-30T13:46:14.357Z,100170.75
2023-11-30T13:48:41.887Z,100171.59
2023-11-30T13:51:08.658Z,100175.97
2023-11-30T13:53:37.750Z,100176.81
2023-11-30T13:56:04.300Z,100178.50
2023-11-30T13:58:32.703Z,100178.50
2023-11-30T14:00:59.296Z,100178.50
2023-11-30T14:03:26.004Z,100174.94
2023-11-30T14:05:53.873Z,100181.22
2023-11-30T14:08:24.696Z,100183.94
2023-11-30T14:10:52.342Z,100182.06
2023-11-30T14:13:18.873Z,100178.50
2023-11-30T14:15:45.414Z,100177.66
2023-11-30T14:18:12.029Z,100175.59
2023-11-30T14:20:40.590Z,100182.91
2023-11-30T14:23:07.292Z,100180.19
2023-11-30T14:25:34.744Z,100182.72
2023-11-30T14:28:07.554Z,100185.44
2023-11-30T14:30:38.438Z,100182.91
2023-11-30T14:33:05.297Z,100190.88
2023-11-30T14:35:33.031Z,100178.94
2023-11-30T14:38:00.076Z,100176.22
2023-11-30T14:40:26.658Z,100169.72
2023-11-30T14:42:53.213Z,100178.75
2023-11-30T14:45:19.832Z,100183.34
2023-11-30T14:47:47.010Z,100185.22
2023-11-30T14:50:16.317Z,100182.50
2023-11-30T14:52:45.615Z,100178.09
2023-11-30T14:55:12.932Z,100175.38
2023-11-30T14:57:39.799Z,100173.50
2023-11-30T15:00:11.517Z,100174.56
2023-11-30T15:02:38.659Z,100167.22
2023-11-30T15:05:08.278Z,100177.06
2023-11-30T15:07:35.065Z,100175.19
2023-11-30T15:10:01.821Z,100173.31
2023-11-30T15:12:28.332Z,100167.00
2023-11-30T15:14:54.836Z,100164.28
2023-11-30T15:17:21.299Z,100172.47
2023-11-30T15:19:47.743Z,100163.44
2023-11-30T15:22:14.175Z,100168.06
2023-11-30T15:24:40.658Z,100168.91
2023-11-30T15:27:07.281Z,100178.09
2023-11-30T15:29:33.722Z,100178.94
2023-11-30T15:32:00.202Z,100178.94
2023-11-30T15:34:26.671Z,100181.66
2023-11-30T15:36:53.153Z,100180.00
2023-11-30T15:39:23.146Z,100181.66
2023-11-30T15:41:51.361Z,100177.06
2023-11-30T15:44:17.981Z,100180.00
2023-11-30T15:46:44.896Z,100187.94
2023-11-30T15:49:14.473Z,100181.66
2023-11-30T15:51:41.529Z,100181.66
2023-11-30T15:54:08.048Z,100186.28
2023-11-30T15:56:34.646Z,100191.72
2023-11-30T15:59:04.459Z,100190.88
2023-11-30T16:01:32.549Z,100193.59
2023-11-30T16:03:59.744Z,100194.44
2023-11-30T16:06:26.990Z,100191.91
2023-11-30T16:08:54.560Z,100190.88
2023-11-30T16:11:21.066Z,100197.81
2023-11-30T16:13:47.721Z,100186.06
2023-11-30T16:16:14.219Z,100185.22
2023-11-30T16:18:42.618Z,100192.16
2023-11-30T16:21:16.896Z,100185.03
2023-11-30T16:23:46.903Z,100189.66
2023-11-30T16:26:20.148Z,100181.50
2023-11-30T16:28:47.015Z,100182.31
2023-11-30T16:31:13.899Z,100183.34
2023-11-30T16:33:40.559Z,100185.88
2023-11-30T16:36:07.318Z,100188.59
2023-11-30T16:38:36.625Z,100176.03
2023-11-30T16:41:03.313Z,100176.88
2023-11-30T16:43:30.972Z,100178.56
2023-11-30T16:45:57.515Z,100180.44
2023-11-30T16:48:24.091Z,100174.16
2023-11-30T16:50:50.876Z,100170.41
2023-11-30T16:53:17.396Z,100172.28
2023-11-30T16:55:43.904Z,100180.44
2023-11-30T16:58:10.352Z,100180.63
2023-11-30T17:00:36.839Z,100185.22
2023-11-30T17:03:04.616Z,100185.88
2023-11-30T17:05:31.476Z,100184.84
2023-11-30T17:07:57.943Z,100189.44
2023-11-30T17:10:27.150Z,100179.59
2023-11-30T17:12:54.798Z,100191.31
2023-11-30T17:15:21.348Z,100186.94
2023-11-30T17:17:50.495Z,100180.44
2023-11-30T17:20:17.071Z,100177.72
2023-11-30T17:22:45.058Z,100184.84
2023-11-30T17:25:11.519Z,100184.00
2023-11-30T17:27:38.175Z,100194.69
2023-11-30T17:30:05.574Z,100192.78
2023-11-30T17:32:32.241Z,100189.22
2023-11-30T17:34:59.008Z,100195.34
2023-11-30T17:37:25.648Z,100193.66
2023-11-30T17:39:52.378Z,100189.06
2023-11-30T17:42:21.190Z,100187.16
2023-11-30T17:44:47.800Z,100184.44
2023-11-30T17:47:16.984Z,100182.56
2023-11-30T17:49:44.022Z,100181.72
2023-11-30T17:52:10.507Z,100178.16
2023-11-30T17:54:37.116Z,100171.69
2023-11-30T17:57:03.696Z,100176.28
2023-11-30T17:59:30.225Z,100168.97
2023-11-30T18:01:56.742Z,100172.53
2023-11-30T18:04:23.239Z,100175.25
2023-11-30T18:07:11.046Z,100175.25
2023-11-30T18:09:38.174Z,100171.69
2023-11-30T18:12:05.072Z,100167.91
2023-11-30T18:14:33.092Z,100178.78
2023-11-30T18:17:03.119Z,100173.56
2023-11-30T18:19:29.873Z,100179.63
2023-11-30T18:21:56.666Z,100171.69
2023-11-30T18:24:32.401Z,100177.13
2023-11-30T18:26:59.325Z,100177.97
2023-11-30T18:29:25.955Z,100165.41
2023-11-30T18:31:52.721Z,100172.91
2023-11-30T18:34:19.676Z,100171.88
2023-11-30T18:36:46.307Z,100179.00
2023-11-30T18:39:14.527Z,100182.56
2023-11-30T18:41:41.192Z,100184.44
2023-11-30T18:44:08.630Z,100186.34
2023-11-30T18:46:35.183Z,100181.91
2023-11-30T18:49:02.834Z,100182.78
2023-11-30T18:51:31.426Z,100178.16
2023-11-30T18:53:58.394Z,100178.16
2023-11-30T18:56:28.634Z,100179.00
2023-11-30T18:58:56.051Z,100180.69
2023-11-30T19:01:22.535Z,100179.00
2023-11-30T19:03:49.115Z,100183.63
2023-11-30T19:06:16.705Z,100182.78
2023-11-30T19:08:46.315Z,100189.88
2023-11-30T19:11:13.162Z,100192.78
2023-11-30T19:13:40.323Z,100187.16
2023-11-30T19:16:07.540Z,100192.78
2023-11-30T19:18:34.350Z,100186.50
2023-11-30T19:21:01.832Z,100192.78
2023-11-30T19:23:28.310Z,100184.44
2023-11-30T19:25:54.783Z,100195.13
2023-11-30T19:28:21.219Z,100183.41
2023-11-30T19:30:47.877Z,100184.25
2023-11-30T19:33:14.422Z,100189.88
2023-11-30T19:35:40.931Z,100195.50
2023-11-30T19:38:07.423Z,100185.28
2023-11-30T19:40:33.928Z,100184.44
2023-11-30T19:43:00.529Z,100192.41
2023-11-30T19:45:27.108Z,100184.44
2023-11-30T19:47:53.616Z,100182.78
2023-11-30T19:50:20.182Z,100189.22
2023-11-30T19:52:46.972Z,100190.06
2023-11-30T19:55:13.503Z,100192.59
2023-11-30T19:57:40.094Z,100185.50
2023-11-30T20:00:06.913Z,100194.28
2023-11-30T20:02:33.588Z,100193.44
2023-11-30T20:05:00.086Z,100187.16
2023-11-30T20:07:26.588Z,100203.28
2023-11-30T20:09:53.116Z,100207.91
2023-11-30T20:12:19.616Z,100206.22
2023-11-30T20:14:46.051Z,100205.16
2023-11-30T20:17:12.603Z,100207.91
2023-11-30T20:19:39.141Z,100200.56
2023-11-30T20:22:05.662Z,100205.16
2023-11-30T20:24:35.241Z,100197.00
2023-11-30T20:27:05.893Z,100197.00
2023-11-30T20:29:32.431Z,100193.44
2023-11-30T20:31:58.994Z,100194.50
2023-11-30T20:34:25.841Z,100200.13
2023-11-30T20:36:52.376Z,100190.06
2023-11-30T20:39:19.959Z,100190.94
2023-11-30T20:41:46.679Z,100200.78
2023-11-30T20:44:13.195Z,100195.34
2023-11-30T20:46:39.728Z,100207.91
2023-11-30T20:49:06.312Z,100211.66
2023-11-30T20:51:32.826Z,100210.00
2023-11-30T20:53:59.443Z,100210.81
2023-11-30T20:56:26.682Z,100211.84
2023-11-30T20:58:53.168Z,100210.81
2023-11-30T21:01:19.780Z,100208.72
2023-11-30T21:03:46.448Z,100205.38
2023-11-30T21:06:13.008Z,100212.50
2023-11-30T21:08:39.442Z,100216.06
2023-11-30T21:11:06.013Z,100219.63
2023-11-30T21:13:33.216Z,100210.63
2023-11-30T21:15:59.898Z,100201.63
2023-11-30T21:18:26.547Z,100203.28
2023-11-30T21:20:53.097Z,100207.25
2023-11-30T21:23:19.676Z,100211.66
2023-11-30T21:25:46.179Z,100209.13
2023-11-30T21:28:12.740Z,100211.84
2023-11-30T21:30:41.203Z,100216.25
2023-11-30T21:33:07.993Z,100217.09
2023-11-30T21:35:35.001Z,100219.63
2023-11-30T21:38:02.068Z,100231.34
2023-11-30T21:40:31.001Z,100235.09
2023-11-30T21:42:57.515Z,100231.34
2023-11-30T21:45:23.940Z,100234.06
2023-11-30T21:47:50.507Z,100229.66
2023-11-30T21:50:19.226Z,100235.09
2023-11-30T21:52:47.750Z,100232.38
2023-11-30T21:55:15.033Z,100228.81
2023-11-30T21:57:45.983Z,100227.16
2023-11-30T22:00:13.633Z,100228.81
2023-11-30T22:02:40.862Z,100238.66
2023-11-30T22:05:08.177Z,100233.22
2023-11-30T22:07:34.711Z,100241.38
2023-11-30T22:10:02.071Z,100242.44
2023-11-30T22:12:28.646Z,100231.34
2023-11-30T22:14:55.186Z,100234.25
2023-11-30T22:17:21.655Z,100233.22
2023-11-30T22:19:48.155Z,100223.19
2023-11-30T22:22:15.633Z,100225.91
2023-11-30T22:24:42.113Z,100237.19
2023-11-30T22:27:09.138Z,100236.16
2023-11-30T22:29:35.686Z,100235.31
2023-11-30T22:32:02.204Z,100236.97
2023-11-30T22:34:28.704Z,100232.38
2023-11-30T22:36:55.565Z,100229.66
2023-11-30T22:39:22.070Z,100229.88
2023-11-30T22:41:50.644Z,100231.34
2023-11-30T22:44:17.469Z,100231.34
2023-11-30T22:46:44.156Z,100228.81
2023-11-30T22:49:10.994Z,100231.34
2023-11-30T22:51:41.709Z,100228.81
2023-11-30T22:54:08.335Z,100234.06
2023-11-30T22:56:34.976Z,100236.78
2023-11-30T22:59:01.515Z,100233.22
2023-11-30T23:01:28.292Z,100229.66
2023-11-30T23:03:55.141Z,100230.50
2023-11-30T23:06:22.576Z,100234.91
2023-11-30T23:08:49.148Z,100238.66
2023-11-30T23:11:15.680Z,100237.81
2023-11-30T23:13:42.214Z,100237.81
2023-11-30T23:16:09.228Z,100247.66
2023-11-30T23:18:35.742Z,100243.06
2023-11-30T23:21:02.237Z,100227.78
2023-11-30T23:23:28.801Z,100236.78
2023-11-30T23:25:55.388Z,100228.63
2023-11-30T23:28:21.875Z,100237.81
2023-11-30T23:30:48.448Z,100237.81
2023-11-30T23:33:15.357Z,100235.09
2023-11-30T23:35:42.018Z,100244.94
2023-11-30T23:38:08.525Z,100242.22
2023-11-30T23:40:34.991Z,100240.34
2023-11-30T23:43:01.567Z,100240.34
2023-11-30T23:45:28.021Z,100230.50
2023-11-30T23:47:54.809Z,100239.50
2023-11-30T23:50:21.360Z,100239.50
2023-11-30T23:52:47.874Z,100236.78
2023-11-30T23:55:14.369Z,100246.81
2023-11-30T23:57:41.009Z,100248.50
